sensor_id;sensor_type;location;lat;lon;timestamp;pressure;altitude;pressure_sealevel;temperature;humidity
61786;BME280;47692;53.714;11.372;2023-06-22T00:01:01;101381.66;;;16.26;97.34
61786;BME280;47692;53.714;11.372;2023-06-22T00:03:26;101384.22;;;16.28;96.81
61786;BME280;47692;53.714;11.372;2023-06-22T00:05:52;101404.38;;;16.29;95.54
61786;BME280;47692;53.714;11.372;2023-06-22T00:08:18;101387.69;;;16.28;94.96
61786;BME280;47692;53.714;11.372;2023-06-22T00:10:45;101396.56;;;16.26;95.62
61786;BME280;47692;53.714;11.372;2023-06-22T00:13:11;101400.13;;;16.25;95.83
61786;BME280;47692;53.714;11.372;2023-06-22T00:15:38;101396.78;;;16.20;96.70
61786;BME280;47692;53.714;11.372;2023-06-22T00:18:08;101397.84;;;16.15;96.55
61786;BME280;47692;53.714;11.372;2023-06-22T00:20:34;101403.16;;;16.14;94.68
61786;BME280;47692;53.714;11.372;2023-06-22T00:23:03;101400.84;;;16.05;94.47
61786;BME280;47692;53.714;11.372;2023-06-22T00:25:42;101407.75;;;16.07;95.29
61786;BME280;47692;53.714;11.372;2023-06-22T00:28:08;101407.88;;;16.04;96.97
61786;BME280;47692;53.714;11.372;2023-06-22T00:30:34;101407.97;;;16.01;98.46
61786;BME280;47692;53.714;11.372;2023-06-22T00:32:59;101416.59;;;16.06;99.58
61786;BME280;47692;53.714;11.372;2023-06-22T00:35:26;101409.50;;;16.08;100.00
61786;BME280;47692;53.714;11.372;2023-06-22T00:37:56;101412.19;;;16.07;100.00
61786;BME280;47692;53.714;11.372;2023-06-22T00:40:26;101408.09;;;15.98;100.00
61786;BME280;47692;53.714;11.372;2023-06-22T00:42:52;101400.28;;;15.95;98.41
61786;BME280;47692;53.714;11.372;2023-06-22T00:45:17;101400.63;;;15.86;97.37
61786;BME280;47692;53.714;11.372;2023-06-22T00:47:42;101403.72;;;15.70;97.04
61786;BME280;47692;53.714;11.372;2023-06-22T00:50:10;101401.59;;;15.55;97.34
61786;BME280;47692;53.714;11.372;2023-06-22T00:52:39;101406.78;;;15.58;98.36
61786;BME280;47692;53.714;11.372;2023-06-22T00:55:08;101410.06;;;15.64;99.19
61786;BME280;47692;53.714;11.372;2023-06-22T00:57:34;101410.91;;;15.65;99.93
61786;BME280;47692;53.714;11.372;2023-06-22T01:00:02;101403.84;;;15.67;100.00
61786;BME280;47692;53.714;11.372;2023-06-22T01:02:31;101410.72;;;15.71;100.00
61786;BME280;47692;53.714;11.372;2023-06-22T01:04:57;101403.84;;;15.67;99.53
61786;BME280;47692;53.714;11.372;2023-06-22T01:07:31;101410.91;;;15.65;100.00
61786;BME280;47692;53.714;11.372;2023-06-22T01:10:05;101419.72;;;15.64;100.00
61786;BME280;47692;53.714;11.372;2023-06-22T01:12:34;101406.59;;;15.62;100.00
61786;BME280;47692;53.714;11.372;2023-06-22T01:15:18;101408.44;;;15.60;100.00
61786;BME280;47692;53.714;11.372;2023-06-22T01:17:48;101406.25;;;15.46;98.56
61786;BME280;47692;53.714;11.372;2023-06-22T01:20:15;101413.28;;;15.46;98.02
61786;BME280;47692;53.714;11.372;2023-06-22T01:23:05;101418.22;;;15.57;100.00
61786;BME280;47692;53.714;11.372;2023-06-22T01:28:41;101420.22;;;15.48;100.00
61786;BME280;47692;53.714;11.372;2023-06-22T01:31:08;101413.53;;;15.38;100.00
61786;BME280;47692;53.714;11.372;2023-06-22T01:33:35;101409.38;;;15.31;100.00
61786;BME280;47692;53.714;11.372;2023-06-22T01:36:02;101419.06;;;15.29;100.00
61786;BME280;47692;53.714;11.372;2023-06-22T01:38:29;101417.94;;;15.38;100.00
61786;BME280;47692;53.714;11.372;2023-06-22T01:40:57;101419.50;;;15.43;100.00
61786;BME280;47692;53.714;11.372;2023-06-22T01:43:23;101417.94;;;15.38;100.00
61786;BME280;47692;53.714;11.372;2023-06-22T01:45:50;101411.91;;;15.34;100.00
61786;BME280;47692;53.714;11.372;2023-06-22T01:48:17;101410.28;;;15.30;100.00
61786;BME280;47692;53.714;11.372;2023-06-22T01:50:42;101412.09;;;15.28;100.00
61786;BME280;47692;53.714;11.372;2023-06-22T01:53:08;101398.41;;;15.16;100.00
61786;BME280;47692;53.714;11.372;2023-06-22T01:55:33;101407.25;;;15.14;100.00
61786;BME280;47692;53.714;11.372;2023-06-22T01:57:59;101400.25;;;15.14;99.98
61786;BME280;47692;53.714;11.372;2023-06-22T02:00:25;101401.88;;;15.18;100.00
61786;BME280;47692;53.714;11.372;2023-06-22T02:03:08;101413.22;;;15.21;100.00
61786;BME280;47692;53.714;11.372;2023-06-22T02:05:38;101419.28;;;15.23;100.00
61786;BME280;47692;53.714;11.372;2023-06-22T02:08:09;101412.09;;;15.28;100.00
61786;BME280;47692;53.714;11.372;2023-06-22T02:10:37;101411.53;;;15.18;100.00
61786;BME280;47692;53.714;11.372;2023-06-22T02:13:06;101415.22;;;15.12;100.00
61786;BME280;47692;53.714;11.372;2023-06-22T02:15:32;101412.78;;;15.06;100.00
61786;BME280;47692;53.714;11.372;2023-06-22T02:17:58;101418.03;;;15.06;100.00
61786;BME280;47692;53.714;11.372;2023-06-22T02:20:24;101422.16;;;15.15;100.00
61786;BME280;47692;53.714;11.372;2023-06-22T02:22:49;101422.72;;;15.25;100.00
61786;BME280;47692;53.714;11.372;2023-06-22T02:25:15;101416.81;;;15.18;100.00
61786;BME280;47692;53.714;11.372;2023-06-22T02:27:40;101414.31;;;15.13;100.00
61786;BME280;47692;53.714;11.372;2023-06-22T02:30:08;101407.50;;;15.06;100.00
61786;BME280;47692;53.714;11.372;2023-06-22T02:32:34;101411.34;;;14.94;100.00
61786;BME280;47692;53.714;11.372;2023-06-22T02:34:59;101401.97;;;14.85;100.00
61786;BME280;47692;53.714;11.372;2023-06-22T02:37:25;101403.34;;;14.69;100.00
61786;BME280;47692;53.714;11.372;2023-06-22T02:39:50;101396.06;;;14.47;100.00
61786;BME280;47692;53.714;11.372;2023-06-22T02:42:15;101394.28;;;14.48;100.00
61786;BME280;47692;53.714;11.372;2023-06-22T02:44:45;101400.31;;;14.51;100.00
61786;BME280;47692;53.714;11.372;2023-06-22T02:47:11;101404.53;;;14.57;100.00
61786;BME280;47692;53.714;11.372;2023-06-22T02:49:36;101407.13;;;14.59;100.00
61786;BME280;47692;53.714;11.372;2023-06-22T02:52:01;101413.69;;;14.75;100.00
61786;BME280;47692;53.714;11.372;2023-06-22T02:54:27;101412.72;;;14.78;100.00
61786;BME280;47692;53.714;11.372;2023-06-22T02:56:52;101406.63;;;14.77;100.00
61786;BME280;47692;53.714;11.372;2023-06-22T02:59:17;101405.97;;;14.69;100.00
61786;BME280;47692;53.714;11.372;2023-06-22T03:01:46;101413.88;;;14.36;100.00
61786;BME280;47692;53.714;11.372;2023-06-22T03:04:12;101413.13;;;14.31;100.00
61786;BME280;47692;53.714;11.372;2023-06-22T03:06:38;101417.31;;;14.38;100.00
61786;BME280;47692;53.714;11.372;2023-06-22T03:09:06;101407.63;;;14.40;100.00
61786;BME280;47692;53.714;11.372;2023-06-22T03:11:33;101415.41;;;14.45;100.00
61786;BME280;47692;53.714;11.372;2023-06-22T03:13:58;101422.88;;;14.59;100.00
61786;BME280;47692;53.714;11.372;2023-06-22T03:16:24;101419.31;;;14.61;100.00
61786;BME280;47692;53.714;11.372;2023-06-22T03:18:49;101422.56;;;14.71;100.00
61786;BME280;47692;53.714;11.372;2023-06-22T03:21:15;101426.59;;;14.83;100.00
61786;BME280;47692;53.714;11.372;2023-06-22T03:23:42;101426.38;;;14.91;100.00
61786;BME280;47692;53.714;11.372;2023-06-22T03:26:08;101430.63;;;14.95;100.00
61786;BME280;47692;53.714;11.372;2023-06-22T03:28:34;101427.91;;;14.98;100.00
61786;BME280;47692;53.714;11.372;2023-06-22T03:30:59;101431.81;;;15.14;100.00
61786;BME280;47692;53.714;11.372;2023-06-22T03:33:25;101433.81;;;15.06;100.00
61786;BME280;47692;53.714;11.372;2023-06-22T03:35:50;101436.53;;;15.03;100.00
61786;BME280;47692;53.714;11.372;2023-06-22T03:38:16;101430.50;;;14.99;100.00
61786;BME280;47692;53.714;11.372;2023-06-22T03:40:42;101423.47;;;15.00;100.00
61786;BME280;47692;53.714;11.372;2023-06-22T03:43:07;101432.00;;;15.08;100.00
61786;BME280;47692;53.714;11.372;2023-06-22T03:45:33;101441.63;;;15.08;100.00
61786;BME280;47692;53.714;11.372;2023-06-22T03:47:58;101435.72;;;15.01;100.00
61786;BME280;47692;53.714;11.372;2023-06-22T03:50:23;101437.25;;;15.08;100.00
61786;BME280;47692;53.714;11.372;2023-06-22T03:52:48;101438.94;;;15.11;100.00
61786;BME280;47692;53.714;11.372;2023-06-22T03:55:14;101445.88;;;15.13;100.00
61786;BME280;47692;53.714;11.372;2023-06-22T03:57:39;101445.00;;;15.13;100.00
61786;BME280;47692;53.714;11.372;2023-06-22T04:00:05;101449.41;;;15.12;100.00
61786;BME280;47692;53.714;11.372;2023-06-22T04:02:31;101451.91;;;15.15;100.00
61786;BME280;47692;53.714;11.372;2023-06-22T04:04:56;101451.84;;;15.18;100.00
61786;BME280;47692;53.714;11.372;2023-06-22T04:07:21;101458.00;;;15.17;100.00
61786;BME280;47692;53.714;11.372;2023-06-22T04:09:47;101456.47;;;15.10;100.00
61786;BME280;47692;53.714;11.372;2023-06-22T04:12:13;101461.13;;;15.00;100.00
61786;BME280;47692;53.714;11.372;2023-06-22T04:14:38;101461.09;;;15.02;100.00
61786;BME280;47692;53.714;11.372;2023-06-22T04:17:04;101467.88;;;15.11;100.00
61786;BME280;47692;53.714;11.372;2023-06-22T04:19:29;101466.63;;;15.23;100.00
61786;BME280;47692;53.714;11.372;2023-06-22T04:21:55;101468.09;;;15.33;100.00
61786;BME280;47692;53.714;11.372;2023-06-22T04:24:20;101468.88;;;15.35;100.00
61786;BME280;47692;53.714;11.372;2023-06-22T04:26:45;101472.13;;;15.43;100.00
61786;BME280;47692;53.714;11.372;2023-06-22T04:29:12;101477.09;;;15.52;100.00
61786;BME280;47692;53.714;11.372;2023-06-22T04:31:38;101482.16;;;15.59;100.00
61786;BME280;47692;53.714;11.372;2023-06-22T04:34:05;101474.19;;;15.62;100.00
61786;BME280;47692;53.714;11.372;2023-06-22T04:36:41;101472.47;;;15.61;100.00
61786;BME280;47692;53.714;11.372;2023-06-22T04:39:09;101465.41;;;15.61;100.00
61786;BME280;47692;53.714;11.372;2023-06-22T04:41:38;101467.00;;;15.67;100.00
61786;BME280;47692;53.714;11.372;2023-06-22T04:44:19;101477.34;;;15.73;100.00
61786;BME280;47692;53.714;11.372;2023-06-22T04:46:51;101480.59;;;15.81;100.00
61786;BME280;47692;53.714;11.372;2023-06-22T04:49:20;101481.34;;;15.87;100.00
61786;BME280;47692;53.714;11.372;2023-06-22T04:51:47;101477.63;;;15.92;100.00
61786;BME280;47692;53.714;11.372;2023-06-22T04:54:13;101473.13;;;15.96;100.00
61786;BME280;47692;53.714;11.372;2023-06-22T04:56:38;101471.16;;;16.03;100.00
61786;BME280;47692;53.714;11.372;2023-06-22T04:59:06;101469.97;;;16.11;100.00
61786;BME280;47692;53.714;11.372;2023-06-22T05:01:31;101469.72;;;16.19;100.00
61786;BME280;47692;53.714;11.372;2023-06-22T05:03:57;101459.81;;;16.26;100.00
61786;BME280;47692;53.714;11.372;2023-06-22T05:06:23;101472.75;;;16.34;100.00
61786;BME280;47692;53.714;11.372;2023-06-22T05:08:55;101468.09;;;16.40;100.00
61786;BME280;47692;53.714;11.372;2023-06-22T05:11:27;101474.00;;;16.47;100.00
61786;BME280;47692;53.714;11.372;2023-06-22T05:13:53;101479.06;;;16.53;100.00
61786;BME280;47692;53.714;11.372;2023-06-22T05:16:20;101477.94;;;16.60;100.00
61786;BME280;47692;53.714;11.372;2023-06-22T05:18:55;101481.09;;;16.70;100.00
61786;BME280;47692;53.714;11.372;2023-06-22T05:21:25;101475.44;;;16.81;100.00
61786;BME280;47692;53.714;11.372;2023-06-22T05:23:51;101477.72;;;16.90;100.00
61786;BME280;47692;53.714;11.372;2023-06-22T05:26:18;101481.59;;;17.05;100.00
61786;BME280;47692;53.714;11.372;2023-06-22T05:28:43;101483.91;;;17.15;100.00
61786;BME280;47692;53.714;11.372;2023-06-22T05:31:15;101477.44;;;17.22;100.00
61786;BME280;47692;53.714;11.372;2023-06-22T05:33:41;101477.94;;;17.32;100.00
61786;BME280;47692;53.714;11.372;2023-06-22T05:36:07;101487.19;;;17.43;100.00
61786;BME280;47692;53.714;11.372;2023-06-22T05:38:32;101486.88;;;17.51;100.00
61786;BME280;47692;53.714;11.372;2023-06-22T05:40:57;101480.44;;;17.58;100.00
61786;BME280;47692;53.714;11.372;2023-06-22T05:43:23;101483.63;;;17.67;100.00
61786;BME280;47692;53.714;11.372;2023-06-22T05:45:48;101483.31;;;17.74;100.00
61786;BME280;47692;53.714;11.372;2023-06-22T05:48:13;101486.28;;;17.87;100.00
61786;BME280;47692;53.714;11.372;2023-06-22T05:50:39;101486.69;;;18.00;100.00
61786;BME280;47692;53.714;11.372;2023-06-22T05:53:04;101475.72;;;18.09;100.00
61786;BME280;47692;53.714;11.372;2023-06-22T05:55:31;101476.50;;;18.32;100.00
61786;BME280;47692;53.714;11.372;2023-06-22T05:57:57;101481.59;;;18.37;100.00
61786;BME280;47692;53.714;11.372;2023-06-22T06:00:22;101479.28;;;18.50;100.00
61786;BME280;47692;53.714;11.372;2023-06-22T06:02:51;101482.72;;;18.52;100.00
61786;BME280;47692;53.714;11.372;2023-06-22T06:05:16;101478.72;;;18.62;100.00
61786;BME280;47692;53.714;11.372;2023-06-22T06:07:43;101487.13;;;18.72;100.00
61786;BME280;47692;53.714;11.372;2023-06-22T06:10:09;101488.50;;;18.81;100.00
61786;BME280;47692;53.714;11.372;2023-06-22T06:12:34;101497.06;;;18.86;100.00
61786;BME280;47692;53.714;11.372;2023-06-22T06:15:01;101486.13;;;18.95;100.00
61786;BME280;47692;53.714;11.372;2023-06-22T06:17:26;101489.13;;;19.07;100.00
61786;BME280;47692;53.714;11.372;2023-06-22T06:19:51;101490.50;;;18.96;100.00
61786;BME280;47692;53.714;11.372;2023-06-22T06:22:17;101492.84;;;19.02;100.00
61786;BME280;47692;53.714;11.372;2023-06-22T06:24:44;101492.13;;;19.18;100.00
61786;BME280;47692;53.714;11.372;2023-06-22T06:27:09;101487.13;;;19.31;95.79
61786;BME280;47692;53.714;11.372;2023-06-22T06:29:35;101484.81;;;19.23;91.05
61786;BME280;47692;53.714;11.372;2023-06-22T06:32:00;101481.88;;;19.29;89.63
61786;BME280;47692;53.714;11.372;2023-06-22T06:34:25;101493.41;;;19.47;90.90
61786;BME280;47692;53.714;11.372;2023-06-22T06:36:50;101491.38;;;19.52;87.58
61786;BME280;47692;53.714;11.372;2023-06-22T06:39:16;101487.44;;;19.61;86.62
61786;BME280;47692;53.714;11.372;2023-06-22T06:41:42;101484.94;;;19.58;86.98
61786;BME280;47692;53.714;11.372;2023-06-22T06:44:07;101480.59;;;19.57;89.81
61786;BME280;47692;53.714;11.372;2023-06-22T06:46:33;101482.00;;;19.64;90.04
61786;BME280;47692;53.714;11.372;2023-06-22T06:48:58;101481.31;;;19.78;89.22
61786;BME280;47692;53.714;11.372;2023-06-22T06:51:23;101475.81;;;19.83;87.01
61786;BME280;47692;53.714;11.372;2023-06-22T06:53:49;101469.66;;;20.00;86.03
61786;BME280;47692;53.714;11.372;2023-06-22T06:56:14;101470.84;;;19.94;84.99
61786;BME280;47692;53.714;11.372;2023-06-22T06:58:42;101473.41;;;19.96;86.67
61786;BME280;47692;53.714;11.372;2023-06-22T07:01:10;101470.06;;;20.10;88.01
61786;BME280;47692;53.714;11.372;2023-06-22T07:03:35;101470.22;;;20.07;88.99
61786;BME280;47692;53.714;11.372;2023-06-22T07:06:01;101472.88;;;20.24;89.76
61786;BME280;47692;53.714;11.372;2023-06-22T07:08:26;101474.09;;;20.34;90.40
61786;BME280;47692;53.714;11.372;2023-06-22T07:10:52;101476.09;;;20.47;90.76
61786;BME280;47692;53.714;11.372;2023-06-22T07:13:17;101472.47;;;20.65;87.36
61786;BME280;47692;53.714;11.372;2023-06-22T07:15:42;101476.75;;;20.68;88.21
61786;BME280;47692;53.714;11.372;2023-06-22T07:18:08;101472.38;;;20.67;85.22
61786;BME280;47692;53.714;11.372;2023-06-22T07:20:33;101468.31;;;20.77;83.36
61786;BME280;47692;53.714;11.372;2023-06-22T07:22:59;101476.66;;;20.87;81.34
61786;BME280;47692;53.714;11.372;2023-06-22T07:25:25;101475.56;;;20.91;79.01
61786;BME280;47692;53.714;11.372;2023-06-22T07:28:01;101469.75;;;21.01;79.99
61786;BME280;47692;53.714;11.372;2023-06-22T07:30:27;101469.66;;;21.18;81.95
61786;BME280;47692;53.714;11.372;2023-06-22T07:32:53;101466.50;;;21.27;80.02
61786;BME280;47692;53.714;11.372;2023-06-22T07:35:18;101468.22;;;21.28;78.54
61786;BME280;47692;53.714;11.372;2023-06-22T07:37:44;101460.25;;;21.28;78.58
61786;BME280;47692;53.714;11.372;2023-06-22T07:40:10;101462.28;;;21.39;78.00
61786;BME280;47692;53.714;11.372;2023-06-22T07:42:35;101460.75;;;21.51;75.22
61786;BME280;47692;53.714;11.372;2023-06-22T07:45:03;101456.47;;;21.65;73.04
61786;BME280;47692;53.714;11.372;2023-06-22T07:47:29;101457.44;;;21.78;72.80
61786;BME280;47692;53.714;11.372;2023-06-22T07:49:55;101457.28;;;21.81;72.25
61786;BME280;47692;53.714;11.372;2023-06-22T07:52:23;101452.50;;;21.72;73.40
61786;BME280;47692;53.714;11.372;2023-06-22T07:54:49;101457.97;;;21.85;73.75
61786;BME280;47692;53.714;11.372;2023-06-22T07:57:15;101455.31;;;21.99;73.17
61786;BME280;47692;53.714;11.372;2023-06-22T07:59:40;101452.22;;;22.07;71.90
61786;BME280;47692;53.714;11.372;2023-06-22T08:02:05;101460.16;;;21.92;71.38
61786;BME280;47692;53.714;11.372;2023-06-22T08:04:31;101460.66;;;21.99;71.05
61786;BME280;47692;53.714;11.372;2023-06-22T08:06:59;101461.88;;;21.93;70.86
61786;BME280;47692;53.714;11.372;2023-06-22T08:09:24;101464.44;;;21.95;71.58
61786;BME280;47692;53.714;11.372;2023-06-22T08:11:49;101454.13;;;22.05;71.46
61786;BME280;47692;53.714;11.372;2023-06-22T08:14:15;101456.88;;;22.03;73.41
61786;BME280;47692;53.714;11.372;2023-06-22T08:16:41;101450.25;;;22.25;72.48
61786;BME280;47692;53.714;11.372;2023-06-22T08:19:07;101455.72;;;22.38;71.71
61786;BME280;47692;53.714;11.372;2023-06-22T08:21:32;101451.56;;;22.48;68.73
61786;BME280;47692;53.714;11.372;2023-06-22T08:23:57;101453.06;;;22.52;69.85
61786;BME280;47692;53.714;11.372;2023-06-22T08:26:22;101458.00;;;22.58;69.84
61786;BME280;47692;53.714;11.372;2023-06-22T08:28:48;101461.81;;;22.54;69.06
61786;BME280;47692;53.714;11.372;2023-06-22T08:31:14;101465.03;;;22.59;67.42
61786;BME280;47692;53.714;11.372;2023-06-22T08:33:39;101467.13;;;22.54;68.05
61786;BME280;47692;53.714;11.372;2023-06-22T08:36:05;101467.72;;;22.74;67.86
61786;BME280;47692;53.714;11.372;2023-06-22T08:38:31;101466.56;;;22.78;66.42
61786;BME280;47692;53.714;11.372;2023-06-22T08:40:56;101473.22;;;22.85;66.86
61786;BME280;47692;53.714;11.372;2023-06-22T08:43:22;101472.66;;;22.80;66.49
61786;BME280;47692;53.714;11.372;2023-06-22T08:45:47;101469.50;;;22.88;67.72
61786;BME280;47692;53.714;11.372;2023-06-22T08:48:12;101475.88;;;22.85;66.77
61786;BME280;47692;53.714;11.372;2023-06-22T08:50:38;101469.00;;;22.81;67.58
61786;BME280;47692;53.714;11.372;2023-06-22T08:53:05;101473.84;;;23.03;67.05
61786;BME280;47692;53.714;11.372;2023-06-22T08:55:30;101467.84;;;23.29;69.33
61786;BME280;47692;53.714;11.372;2023-06-22T08:57:56;101465.88;;;23.45;65.64
61786;BME280;47692;53.714;11.372;2023-06-22T09:00:21;101462.72;;;23.53;64.70
61786;BME280;47692;53.714;11.372;2023-06-22T09:02:47;101465.59;;;23.50;65.35
61786;BME280;47692;53.714;11.372;2023-06-22T09:05:13;101466.22;;;23.53;65.66
61786;BME280;47692;53.714;11.372;2023-06-22T09:07:38;101461.78;;;23.67;65.34
61786;BME280;47692;53.714;11.372;2023-06-22T09:10:05;101455.03;;;23.88;65.87
61786;BME280;47692;53.714;11.372;2023-06-22T09:12:31;101453.69;;;23.96;64.25
61786;BME280;47692;53.714;11.372;2023-06-22T09:14:58;101457.63;;;24.03;62.03
61786;BME280;47692;53.714;11.372;2023-06-22T09:17:25;101457.00;;;24.12;62.59
61786;BME280;47692;53.714;11.372;2023-06-22T09:19:50;101450.91;;;24.10;61.51
61786;BME280;47692;53.714;11.372;2023-06-22T09:22:16;101450.59;;;24.02;61.71
61786;BME280;47692;53.714;11.372;2023-06-22T09:24:41;101448.06;;;24.13;62.15
61786;BME280;47692;53.714;11.372;2023-06-22T09:27:06;101447.06;;;24.14;60.98
61786;BME280;47692;53.714;11.372;2023-06-22T09:29:32;101458.50;;;24.16;61.10
61786;BME280;47692;53.714;11.372;2023-06-22T09:32:01;101453.38;;;24.13;59.79
61786;BME280;47692;53.714;11.372;2023-06-22T09:34:27;101453.91;;;24.18;59.33
61786;BME280;47692;53.714;11.372;2023-06-22T09:36:52;101445.69;;;24.22;61.03
61786;BME280;47692;53.714;11.372;2023-06-22T09:39:18;101449.13;;;24.24;58.43
61786;BME280;47692;53.714;11.372;2023-06-22T09:41:43;101450.84;;;24.25;59.18
61786;BME280;47692;53.714;11.372;2023-06-22T09:44:09;101448.47;;;24.33;59.48
61786;BME280;47692;53.714;11.372;2023-06-22T09:46:34;101443.56;;;24.52;61.70
61786;BME280;47692;53.714;11.372;2023-06-22T09:48:59;101436.06;;;24.58;59.02
61786;BME280;47692;53.714;11.372;2023-06-22T09:51:25;101433.75;;;24.66;59.26
61786;BME280;47692;53.714;11.372;2023-06-22T09:53:51;101432.34;;;24.73;59.85
61786;BME280;47692;53.714;11.372;2023-06-22T09:56:17;101425.50;;;24.69;59.22
61786;BME280;47692;53.714;11.372;2023-06-22T09:58:42;101430.28;;;24.64;60.59
61786;BME280;47692;53.714;11.372;2023-06-22T10:01:08;101424.75;;;24.80;59.66
61786;BME280;47692;53.714;11.372;2023-06-22T10:03:34;101426.41;;;24.94;60.53
61786;BME280;47692;53.714;11.372;2023-06-22T10:05:59;101427.66;;;25.01;60.68
61786;BME280;47692;53.714;11.372;2023-06-22T10:08:24;101427.22;;;25.07;59.58
61786;BME280;47692;53.714;11.372;2023-06-22T10:10:50;101425.31;;;25.09;58.93
61786;BME280;47692;53.714;11.372;2023-06-22T10:13:15;101412.66;;;25.11;59.82
61786;BME280;47692;53.714;11.372;2023-06-22T10:15:41;101408.38;;;25.22;58.39
61786;BME280;47692;53.714;11.372;2023-06-22T10:18:06;101406.97;;;25.29;60.97
61786;BME280;47692;53.714;11.372;2023-06-22T10:20:32;101399.41;;;25.47;59.75
61786;BME280;47692;53.714;11.372;2023-06-22T10:22:57;101399.06;;;25.52;58.39
61786;BME280;47692;53.714;11.372;2023-06-22T10:25:23;101398.81;;;25.55;60.01
61786;BME280;47692;53.714;11.372;2023-06-22T10:27:48;101387.50;;;25.51;59.25
61786;BME280;47692;53.714;11.372;2023-06-22T10:30:14;101393.47;;;25.55;60.00
61786;BME280;47692;53.714;11.372;2023-06-22T10:32:40;101387.66;;;25.61;60.20
61786;BME280;47692;53.714;11.372;2023-06-22T10:35:06;101397.13;;;25.54;59.75
61786;BME280;47692;53.714;11.372;2023-06-22T10:37:31;101390.53;;;25.46;57.98
61786;BME280;47692;53.714;11.372;2023-06-22T10:39:57;101394.22;;;25.32;59.48
61786;BME280;47692;53.714;11.372;2023-06-22T10:42:22;101388.00;;;25.32;59.21
61786;BME280;47692;53.714;11.372;2023-06-22T10:44:48;101395.00;;;25.46;58.34
61786;BME280;47692;53.714;11.372;2023-06-22T10:47:14;101394.19;;;25.45;59.89
61786;BME280;47692;53.714;11.372;2023-06-22T10:49:39;101385.88;;;25.37;59.02
61786;BME280;47692;53.714;11.372;2023-06-22T10:52:08;101392.00;;;25.51;60.82
61786;BME280;47692;53.714;11.372;2023-06-22T10:54:35;101385.59;;;25.64;59.38
61786;BME280;47692;53.714;11.372;2023-06-22T10:57:02;101383.53;;;25.68;57.97
61786;BME280;47692;53.714;11.372;2023-06-22T10:59:27;101389.84;;;25.67;59.18
61786;BME280;47692;53.714;11.372;2023-06-22T11:01:54;101386.91;;;25.47;59.81
61786;BME280;47692;53.714;11.372;2023-06-22T11:04:20;101383.94;;;25.39;58.95
61786;BME280;47692;53.714;11.372;2023-06-22T11:06:45;101387.44;;;25.40;61.71
61786;BME280;47692;53.714;11.372;2023-06-22T11:09:10;101387.13;;;25.44;61.37
61786;BME280;47692;53.714;11.372;2023-06-22T11:11:36;101378.31;;;25.67;59.18
61786;BME280;47692;53.714;11.372;2023-06-22T11:14:01;101380.53;;;25.73;58.95
61786;BME280;47692;53.714;11.372;2023-06-22T11:16:27;101374.34;;;25.84;59.29
61786;BME280;47692;53.714;11.372;2023-06-22T11:18:52;101374.38;;;25.95;58.84
61786;BME280;47692;53.714;11.372;2023-06-22T11:21:17;101372.09;;;26.13;57.52
61786;BME280;47692;53.714;11.372;2023-06-22T11:23:43;101362.97;;;26.16;56.59
61786;BME280;47692;53.714;11.372;2023-06-22T11:26:08;101355.19;;;26.12;58.44
61786;BME280;47692;53.714;11.372;2023-06-22T11:28:33;101361.03;;;26.29;58.42
61786;BME280;47692;53.714;11.372;2023-06-22T11:30:59;101349.81;;;26.47;55.97
61786;BME280;47692;53.714;11.372;2023-06-22T11:33:24;101350.09;;;26.32;58.87
61786;BME280;47692;53.714;11.372;2023-06-22T11:35:49;101351.28;;;26.39;56.52
61786;BME280;47692;53.714;11.372;2023-06-22T11:38:15;101344.97;;;26.18;57.41
61786;BME280;47692;53.714;11.372;2023-06-22T11:40:40;101339.00;;;26.25;59.65
61786;BME280;47692;53.714;11.372;2023-06-22T11:43:05;101340.56;;;26.62;56.96
61786;BME280;47692;53.714;11.372;2023-06-22T11:45:31;101345.47;;;27.01;55.87
61786;BME280;47692;53.714;11.372;2023-06-22T11:47:56;101344.00;;;27.08;54.53
61786;BME280;47692;53.714;11.372;2023-06-22T11:50:21;101345.06;;;27.17;56.40
61786;BME280;47692;53.714;11.372;2023-06-22T11:52:47;101336.56;;;27.12;53.79
61786;BME280;47692;53.714;11.372;2023-06-22T11:55:12;101336.81;;;27.08;56.63
61786;BME280;47692;53.714;11.372;2023-06-22T11:57:39;101328.09;;;27.16;56.83
61786;BME280;47692;53.714;11.372;2023-06-22T12:00:16;101333.22;;;27.52;57.26
61786;BME280;47692;53.714;11.372;2023-06-22T12:02:43;101327.97;;;27.71;54.51
61786;BME280;47692;53.714;11.372;2023-06-22T12:05:10;101330.50;;;27.73;54.16
61786;BME280;47692;53.714;11.372;2023-06-22T12:07:36;101328.41;;;27.77;55.21
61786;BME280;47692;53.714;11.372;2023-06-22T12:10:02;101331.94;;;27.77;53.59
61786;BME280;47692;53.714;11.372;2023-06-22T12:12:27;101323.22;;;27.85;54.45
61786;BME280;47692;53.714;11.372;2023-06-22T12:14:52;101316.22;;;27.94;56.23
61786;BME280;47692;53.714;11.372;2023-06-22T12:17:18;101318.22;;;28.01;54.52
61786;BME280;47692;53.714;11.372;2023-06-22T12:19:43;101314.47;;;27.83;54.43
61786;BME280;47692;53.714;11.372;2023-06-22T12:22:08;101321.50;;;27.74;56.08
61786;BME280;47692;53.714;11.372;2023-06-22T12:24:33;101315.19;;;27.64;56.48
61786;BME280;47692;53.714;11.372;2023-06-22T12:26:59;101309.53;;;27.57;57.84
61786;BME280;47692;53.714;11.372;2023-06-22T12:29:24;101311.94;;;27.91;55.74
61786;BME280;47692;53.714;11.372;2023-06-22T12:31:49;101309.25;;;28.12;56.37
61786;BME280;47692;53.714;11.372;2023-06-22T12:34:14;101309.59;;;28.29;53.90